createdAt,value
2017-08-25T00:01:26.790Z,11.77
2017-08-25T00:03:53.224Z,12.50
2017-08-25T00:06:19.656Z,12.00
2017-08-25T00:08:46.095Z,12.73
2017-08-25T00:11:12.529Z,12.63
2017-08-25T00:13:38.969Z,10.87
2017-08-25T00:16:05.502Z,12.10
2017-08-25T00:18:31.935Z,12.10
2017-08-25T00:20:58.373Z,11.80
2017-08-25T00:23:24.808Z,12.07
2017-08-25T00:25:51.342Z,12.00
2017-08-25T00:28:17.778Z,11.87
2017-08-25T00:30:44.213Z,11.47
2017-08-25T00:33:10.687Z,11.93
2017-08-25T00:35:37.205Z,12.50
2017-08-25T00:38:03.620Z,11.90
2017-08-25T00:40:30.040Z,12.07
2017-08-25T00:42:56.492Z,11.00
2017-08-25T00:45:22.979Z,12.93
2017-08-25T00:47:49.360Z,13.13
2017-08-25T00:50:15.795Z,12.87
2017-08-25T00:52:42.186Z,11.87
2017-08-25T00:55:08.625Z,12.27
2017-08-25T00:57:35.097Z,11.97
2017-08-25T01:00:01.535Z,12.47
2017-08-25T01:02:27.969Z,12.30
2017-08-25T01:04:54.506Z,11.80
2017-08-25T01:07:20.896Z,12.17
2017-08-25T01:09:47.378Z,12.20
2017-08-25T01:12:13.855Z,11.40
2017-08-25T01:14:40.350Z,11.93
2017-08-25T01:17:06.784Z,11.63
2017-08-25T01:19:33.421Z,12.10
2017-08-25T01:21:59.860Z,13.70
2017-08-25T01:24:26.377Z,14.90
2017-08-25T01:26:52.819Z,15.07
2017-08-25T01:29:19.220Z,14.87
2017-08-25T01:31:45.587Z,16.80
2017-08-25T01:34:12.033Z,17.50
2017-08-25T01:36:38.470Z,16.13
2017-08-25T01:39:04.906Z,17.30
2017-08-25T01:41:31.339Z,16.80
2017-08-25T01:43:57.695Z,17.33
2017-08-25T01:46:24.184Z,16.90
2017-08-25T01:48:50.648Z,17.80
2017-08-25T01:51:17.076Z,16.20
2017-08-25T01:53:43.468Z,15.03
2017-08-25T01:56:09.949Z,13.40
2017-08-25T01:58:36.384Z,14.53
2017-08-25T02:01:02.773Z,14.57
2017-08-25T02:03:29.200Z,13.50
2017-08-25T02:05:55.686Z,14.73
2017-08-25T02:08:22.120Z,14.40
2017-08-25T02:10:48.518Z,13.70
2017-08-25T02:13:14.950Z,14.17
2017-08-25T02:15:41.375Z,12.10
2017-08-25T02:18:07.810Z,13.13
2017-08-25T02:20:34.290Z,11.90
2017-08-25T02:23:00.685Z,12.20
2017-08-25T02:25:27.198Z,12.93
2017-08-25T02:27:53.666Z,12.63
2017-08-25T02:30:20.137Z,12.53
2017-08-25T02:32:46.573Z,12.10
2017-08-25T02:35:13.109Z,13.20
2017-08-25T02:37:39.546Z,12.10
2017-08-25T02:40:05.996Z,11.57
2017-08-25T02:42:32.483Z,12.27
2017-08-25T02:44:58.928Z,12.70
2017-08-25T02:47:25.370Z,12.50
2017-08-25T02:49:51.772Z,13.70
2017-08-25T02:52:18.298Z,12.60
2017-08-25T02:54:44.792Z,12.40
2017-08-25T02:57:11.179Z,12.50
2017-08-25T02:59:37.663Z,12.47
2017-08-25T03:02:04.220Z,12.17
2017-08-25T03:04:30.718Z,13.03
2017-08-25T03:06:57.160Z,12.27
2017-08-25T03:09:23.606Z,12.03
2017-08-25T03:11:50.044Z,13.17
2017-08-25T03:14:16.478Z,12.13
2017-08-25T03:16:42.914Z,12.77
2017-08-25T03:19:09.346Z,12.60
2017-08-25T03:21:35.780Z,11.93
2017-08-25T03:24:02.174Z,11.40
2017-08-25T03:26:28.654Z,12.23
2017-08-25T03:28:55.067Z,11.90
2017-08-25T03:31:21.522Z,11.77
2017-08-25T03:33:47.957Z,12.43
2017-08-25T03:36:14.495Z,14.40
2017-08-25T03:38:40.930Z,13.93
2017-08-25T03:41:07.327Z,13.77
2017-08-25T03:43:33.798Z,12.80
2017-08-25T03:46:00.335Z,12.73
2017-08-25T03:48:26.769Z,13.17
2017-08-25T03:50:53.157Z,12.80
2017-08-25T03:53:19.639Z,13.03
2017-08-25T03:55:46.132Z,12.70
2017-08-25T03:58:12.580Z,12.10
2017-08-25T04:00:39.015Z,12.33
2017-08-25T04:03:05.481Z,12.73
2017-08-25T04:05:32.015Z,13.17
2017-08-25T04:07:58.456Z,13.13
2017-08-25T04:10:24.890Z,12.20
2017-08-25T04:12:51.325Z,13.80
2017-08-25T04:15:17.847Z,13.30
2017-08-25T04:17:44.297Z,13.20
2017-08-25T04:20:10.735Z,12.40
2017-08-25T04:22:37.165Z,13.17
2017-08-25T04:25:03.632Z,13.30
2017-08-25T04:27:30.163Z,14.33
2017-08-25T04:29:56.574Z,14.10
2017-08-25T04:32:22.960Z,13.03
2017-08-25T04:34:49.441Z,13.20
2017-08-25T04:37:15.879Z,12.77
2017-08-25T04:39:42.474Z,13.40
2017-08-25T04:42:08.848Z,13.60
2017-08-25T04:44:35.348Z,13.80
2017-08-25T04:47:01.772Z,13.77
2017-08-25T04:49:28.256Z,13.33
2017-08-25T04:51:54.690Z,14.00
2017-08-25T04:54:21.124Z,15.63
2017-08-25T04:56:47.560Z,14.83
2017-08-25T04:59:13.999Z,15.83
2017-08-25T05:01:40.532Z,15.40
2017-08-25T05:04:06.968Z,15.83
2017-08-25T05:06:33.403Z,14.90
2017-08-25T05:08:59.834Z,15.90
2017-08-25T05:11:26.295Z,15.90
2017-08-25T05:13:52.809Z,15.37
2017-08-25T05:16:19.346Z,15.70
2017-08-25T05:18:45.883Z,12.13
2017-08-25T05:21:12.294Z,12.60
2017-08-25T05:23:38.737Z,13.07
2017-08-25T05:26:05.293Z,12.90
2017-08-25T05:28:31.729Z,13.77
2017-08-25T05:30:58.162Z,14.07
2017-08-25T05:33:24.697Z,12.53
2017-08-25T05:35:51.543Z,12.10
2017-08-25T05:38:18.164Z,11.30
2017-08-25T05:40:44.828Z,11.97
2017-08-25T05:43:11.578Z,12.40
2017-08-25T05:45:38.056Z,12.03
2017-08-25T05:48:04.636Z,11.47
2017-08-25T05:50:31.279Z,12.47
2017-08-25T05:52:57.817Z,12.53
2017-08-25T05:55:24.363Z,11.67
2017-08-25T05:57:50.789Z,12.53
2017-08-25T06:00:17.315Z,12.73
2017-08-25T06:02:43.693Z,13.50
2017-08-25T06:05:10.161Z,13.70
2017-08-25T06:07:36.629Z,14.97
2017-08-25T06:10:03.377Z,14.30
2017-08-25T06:12:29.913Z,14.37
2017-08-25T06:14:56.553Z,13.60
2017-08-25T06:17:23.999Z,13.40
2017-08-25T06:19:50.469Z,13.80
2017-08-25T06:22:16.948Z,14.27
2017-08-25T06:24:43.623Z,12.53
2017-08-25T06:27:10.160Z,13.60
2017-08-25T06:29:36.543Z,13.57
2017-08-25T06:32:03.257Z,12.90
2017-08-25T06:34:29.875Z,13.43
2017-08-25T06:36:56.512Z,12.10
2017-08-25T06:39:22.999Z,12.80
2017-08-25T06:41:49.483Z,13.90
2017-08-25T06:44:15.972Z,11.43
2017-08-25T06:46:42.520Z,11.63
2017-08-25T06:49:08.957Z,11.47
2017-08-25T06:51:35.632Z,12.13
2017-08-25T06:54:02.174Z,11.17
2017-08-25T06:56:28.709Z,12.10
2017-08-25T06:58:55.142Z,13.10
2017-08-25T07:01:21.577Z,10.60
2017-08-25T07:03:48.012Z,11.10
2017-08-25T07:06:14.513Z,11.00
2017-08-25T07:08:40.936Z,11.20
2017-08-25T07:11:07.419Z,11.33
2017-08-25T07:13:34.128Z,11.13
2017-08-25T07:16:00.648Z,11.80
2017-08-25T07:18:27.119Z,10.50
2017-08-25T07:20:53.568Z,10.47
2017-08-25T07:23:20.309Z,10.10
2017-08-25T07:25:46.846Z,10.30
2017-08-25T07:28:13.282Z,10.67
2017-08-25T07:30:40.073Z,10.17
2017-08-25T07:33:06.560Z,10.83
2017-08-25T07:35:33.097Z,11.30
2017-08-25T07:38:00.560Z,11.43
2017-08-25T07:40:27.044Z,9.90
2017-08-25T07:42:53.506Z,11.23
2017-08-25T07:45:20.171Z,11.70
2017-08-25T07:47:46.704Z,11.03
2017-08-25T07:50:13.088Z,10.63
2017-08-25T07:52:39.677Z,11.30
2017-08-25T07:55:06.215Z,11.60
2017-08-25T07:57:32.751Z,10.07
2017-08-25T07:59:59.595Z,10.40
2017-08-25T08:02:26.112Z,9.17
2017-08-25T08:04:52.670Z,9.83
2017-08-25T08:07:19.260Z,15.77
2017-08-25T08:09:45.660Z,11.00
2017-08-25T08:12:12.077Z,9.87
2017-08-25T08:14:38.818Z,10.83
2017-08-25T08:17:05.356Z,15.17
2017-08-25T08:19:31.894Z,13.47
2017-08-25T08:21:58.713Z,13.70
2017-08-25T08:24:25.172Z,10.97
2017-08-25T08:26:51.608Z,13.80
2017-08-25T08:29:18.084Z,11.27
2017-08-25T08:31:44.580Z,8.27
2017-08-25T08:34:11.116Z,8.07
2017-08-25T08:36:37.662Z,8.60
2017-08-25T08:39:04.192Z,8.30
2017-08-25T08:41:30.624Z,7.37
2017-08-25T08:43:57.267Z,7.40
2017-08-25T08:46:23.760Z,7.50
2017-08-25T08:48:50.189Z,9.40
2017-08-25T08:51:16.881Z,7.67
2017-08-25T08:53:43.310Z,8.33
2017-08-25T08:56:09.851Z,9.57
2017-08-25T08:58:36.595Z,7.83
2017-08-25T09:01:03.129Z,8.27
2017-08-25T09:03:29.687Z,8.40
2017-08-25T09:05:56.204Z,7.10
2017-08-25T09:08:22.741Z,7.33
2017-08-25T09:10:49.586Z,6.97
2017-08-25T09:13:16.225Z,8.60
2017-08-25T09:15:42.712Z,9.67
2017-08-25T09:18:09.196Z,7.07
2017-08-25T09:20:35.939Z,6.90
2017-08-25T09:23:02.374Z,7.40
2017-08-25T09:25:28.838Z,7.20
2017-08-25T09:27:55.339Z,6.87
2017-08-25T09:30:22.282Z,7.20
2017-08-25T09:32:48.727Z,7.60
2017-08-25T09:35:15.271Z,7.60
2017-08-25T09:37:42.113Z,7.43
2017-08-25T09:40:08.548Z,7.87
2017-08-25T09:42:34.932Z,8.07
2017-08-25T09:45:01.799Z,9.07
2017-08-25T09:47:28.256Z,7.50
2017-08-25T09:49:55.412Z,7.23
2017-08-25T09:52:21.864Z,7.80
2017-08-25T09:54:48.364Z,7.47
2017-08-25T09:57:14.936Z,7.33
2017-08-25T09:59:42.277Z,7.20
2017-08-25T10:02:08.845Z,8.63
2017-08-25T10:04:35.457Z,8.77
2017-08-25T10:07:01.993Z,7.60
2017-08-25T10:09:28.530Z,6.60
2017-08-25T10:11:55.271Z,6.67
2017-08-25T10:14:21.705Z,6.60
2017-08-25T10:16:48.140Z,7.00
2017-08-25T10:19:15.143Z,6.90
2017-08-25T10:21:41.723Z,6.70
2017-08-25T10:24:08.368Z,7.27
2017-08-25T10:26:34.966Z,7.13
2017-08-25T10:29:01.646Z,7.37
2017-08-25T10:31:28.296Z,7.37
2017-08-25T10:33:56.088Z,6.40
2017-08-25T10:36:22.919Z,7.33
2017-08-25T10:38:49.332Z,6.80
2017-08-25T10:41:16.073Z,7.30
2017-08-25T10:43:42.611Z,6.60
2017-08-25T10:46:09.255Z,7.27
2017-08-25T10:48:36.381Z,6.63
2017-08-25T10:51:03.588Z,7.47
2017-08-25T10:53:31.351Z,8.20
2017-08-25T10:55:58.894Z,7.10
2017-08-25T10:58:26.831Z,6.90
2017-08-25T11:00:53.297Z,7.30
2017-08-25T11:03:20.134Z,7.00
2017-08-25T11:05:46.671Z,6.97
2017-08-25T11:08:13.620Z,6.77
2017-08-25T11:10:40.464Z,6.80
2017-08-25T11:13:07.202Z,7.73
2017-08-25T11:15:33.636Z,6.67
2017-08-25T11:18:00.475Z,6.63
2017-08-25T11:20:26.914Z,6.97
2017-08-25T11:22:53.459Z,6.30
2017-08-25T11:25:20.404Z,6.47
2017-08-25T11:27:46.941Z,6.80
2017-08-25T11:30:13.496Z,6.17
2017-08-25T11:32:40.371Z,6.90
2017-08-25T11:35:06.960Z,6.17
2017-08-25T11:37:33.503Z,6.10
2017-08-25T11:40:00.496Z,6.17
2017-08-25T11:42:26.932Z,5.80
2017-08-25T11:44:53.518Z,5.37
2017-08-25T11:47:20.157Z,5.20
2017-08-25T11:49:47.564Z,5.40
2017-08-25T11:52:14.004Z,4.80
2017-08-25T11:54:40.597Z,4.87
2017-08-25T11:57:07.126Z,4.33
2017-08-25T11:59:33.560Z,4.53
2017-08-25T12:02:00.406Z,4.63
2017-08-25T12:04:26.840Z,4.43
2017-08-25T12:06:53.279Z,4.10
2017-08-25T12:09:19.728Z,4.40
2017-08-25T12:11:46.144Z,4.20
2017-08-25T12:14:12.581Z,4.10
2017-08-25T12:16:39.629Z,4.50
2017-08-25T12:19:06.065Z,4.00
2017-08-25T12:21:32.600Z,3.73
2017-08-25T12:23:59.240Z,3.50
2017-08-25T12:26:26.088Z,3.77
2017-08-25T12:28:52.521Z,4.37
2017-08-25T12:31:19.149Z,3.43
2017-08-25T12:33:45.697Z,3.20
2017-08-25T12:36:12.184Z,3.97
2017-08-25T12:38:39.029Z,4.00
2017-08-25T12:41:05.514Z,3.60
2017-08-25T12:43:31.952Z,3.60
2017-08-25T12:45:59.098Z,3.70
2017-08-25T12:48:25.535Z,3.63
2017-08-25T12:50:51.971Z,3.97
2017-08-25T12:53:18.817Z,3.70
2017-08-25T12:55:45.353Z,3.20
2017-08-25T12:58:11.786Z,3.10
2017-08-25T13:00:38.631Z,3.10
2017-08-25T13:03:05.190Z,9.15
2017-08-25T13:05:32.246Z,3.00
2017-08-25T13:07:59.144Z,3.00
2017-08-25T13:10:25.587Z,3.17
2017-08-25T13:12:52.057Z,3.03
2017-08-25T13:15:18.571Z,2.55
2017-08-25T13:17:45.927Z,2.87
2017-08-25T13:20:12.363Z,2.53
2017-08-25T13:22:38.797Z,2.80
2017-08-25T13:25:05.549Z,2.85
2017-08-25T13:27:31.974Z,3.00
2017-08-25T13:29:59.126Z,2.65
2017-08-25T13:32:25.513Z,3.00
2017-08-25T13:34:51.913Z,2.70
2017-08-25T13:37:18.530Z,2.70
2017-08-25T13:39:44.968Z,3.20
2017-08-25T13:42:11.505Z,2.90
2017-08-25T13:44:38.050Z,3.45
2017-08-25T13:47:04.939Z,2.90
2017-08-25T13:49:31.443Z,3.60
2017-08-25T13:51:57.962Z,2.90
2017-08-25T13:54:24.504Z,2.95
2017-08-25T13:56:50.987Z,3.40
2017-08-25T13:59:17.414Z,3.60
2017-08-25T14:01:43.957Z,3.70
2017-08-25T14:04:10.462Z,3.80
2017-08-25T14:06:36.934Z,4.30
2017-08-25T14:09:03.413Z,4.57
2017-08-25T14:11:29.951Z,4.40
2017-08-25T14:13:57.161Z,5.33
2017-08-25T14:16:23.741Z,5.67
2017-08-25T14:18:50.177Z,6.40
2017-08-25T14:21:16.612Z,6.60
2017-08-25T14:23:43.559Z,6.90
2017-08-25T14:26:10.047Z,7.30
2017-08-25T14:28:36.530Z,7.00
2017-08-25T14:31:03.197Z,7.07
2017-08-25T14:33:29.705Z,7.40
2017-08-25T14:35:56.168Z,6.27
2017-08-25T14:38:23.088Z,6.67
2017-08-25T14:40:49.577Z,7.30
2017-08-25T14:43:16.775Z,6.80
2017-08-25T14:45:43.622Z,6.80
2017-08-25T14:48:10.142Z,7.47
2017-08-25T14:50:36.695Z,7.20
2017-08-25T14:53:03.846Z,7.70
2017-08-25T14:55:30.385Z,7.43
2017-08-25T14:57:56.824Z,7.27
2017-08-25T15:00:23.257Z,6.83
2017-08-25T15:02:50.075Z,7.37
2017-08-25T15:05:16.587Z,8.50
2017-08-25T15:07:43.029Z,7.20
2017-08-25T15:10:10.139Z,7.23
2017-08-25T15:12:36.657Z,7.63
2017-08-25T15:15:03.197Z,7.93
2017-08-25T15:17:31.493Z,7.47
2017-08-25T15:19:58.931Z,7.30
2017-08-25T15:22:28.870Z,7.87
2017-08-25T15:24:58.832Z,8.10
2017-08-25T15:27:30.561Z,7.97
2017-08-25T15:30:07.588Z,8.21
2017-08-25T15:35:18.901Z,7.57
2017-08-25T15:37:45.552Z,7.53
2017-08-25T15:40:11.962Z,7.63
2017-08-25T15:42:38.624Z,8.20
2017-08-25T15:45:06.089Z,7.80
2017-08-25T15:47:32.621Z,8.43
2017-08-25T15:49:59.568Z,7.43
2017-08-25T15:52:26.818Z,7.70
2017-08-25T15:54:53.358Z,8.17
2017-08-25T15:57:19.895Z,8.20
2017-08-25T15:59:46.330Z,8.40
2017-08-25T16:02:12.765Z,8.60
2017-08-25T16:04:39.507Z,8.57
2017-08-25T16:07:05.882Z,9.10
2017-08-25T16:09:32.332Z,8.90
2017-08-25T16:11:58.801Z,9.20
2017-08-25T16:14:25.225Z,8.60
2017-08-25T16:16:51.635Z,8.10
2017-08-25T16:19:18.103Z,9.07
2017-08-25T16:21:44.859Z,9.70
2017-08-25T16:24:11.294Z,8.57
2017-08-25T16:26:37.730Z,9.90
2017-08-25T16:29:04.115Z,10.37
2017-08-25T16:31:30.599Z,9.33
2017-08-25T16:33:57.443Z,9.47
2017-08-25T16:36:24.002Z,10.00
2017-08-25T16:38:50.437Z,10.27
2017-08-25T16:41:16.940Z,10.30
2017-08-25T16:43:43.396Z,9.90
2017-08-25T16:46:09.925Z,10.83
2017-08-25T16:48:36.344Z,11.37
2017-08-25T16:51:02.960Z,10.40
2017-08-25T16:53:29.434Z,12.90
2017-08-25T16:55:55.937Z,10.37
2017-08-25T16:58:22.390Z,10.57
2017-08-25T17:00:48.833Z,10.90
2017-08-25T17:03:15.483Z,10.83
2017-08-25T17:05:42.019Z,11.23
2017-08-25T17:08:08.415Z,11.80
2017-08-25T17:10:34.786Z,10.60
2017-08-25T17:13:01.176Z,12.27
2017-08-25T17:15:27.643Z,11.60
2017-08-25T17:17:54.093Z,12.10
2017-08-25T17:20:20.478Z,11.73
2017-08-25T17:22:47.325Z,12.10
2017-08-25T17:25:13.805Z,12.60
2017-08-25T17:27:40.195Z,11.60
2017-08-25T17:30:06.675Z,12.40
2017-08-25T17:32:33.417Z,12.30
2017-08-25T17:34:59.913Z,12.60
2017-08-25T17:37:26.389Z,13.90
2017-08-25T17:39:52.822Z,13.60
2017-08-25T17:42:19.259Z,13.17
2017-08-25T17:44:45.692Z,12.90
2017-08-25T17:47:12.129Z,13.80
2017-08-25T17:49:38.563Z,12.50
2017-08-25T17:52:05.155Z,11.20
2017-08-25T17:54:31.629Z,11.60
2017-08-25T17:56:58.073Z,12.83
2017-08-25T17:59:24.815Z,12.93
2017-08-25T18:01:51.200Z,13.17
2017-08-25T18:04:18.095Z,14.30
2017-08-25T18:06:44.529Z,13.07
2017-08-25T18:09:10.966Z,12.97
2017-08-25T18:11:37.400Z,13.00
2017-08-25T18:14:03.834Z,11.77
2017-08-25T18:16:30.372Z,11.93
2017-08-25T18:18:56.806Z,12.20
2017-08-25T18:21:24.061Z,11.60
2017-08-25T18:23:50.495Z,10.90
2017-08-25T18:26:16.993Z,11.07
2017-08-25T18:28:43.365Z,11.00
2017-08-25T18:31:09.803Z,12.40
2017-08-25T18:33:36.639Z,12.23
2017-08-25T18:36:03.183Z,11.87
2017-08-25T18:38:29.617Z,11.17
2017-08-25T18:40:56.054Z,11.90
2017-08-25T18:43:22.541Z,10.80
2017-08-25T18:45:48.982Z,11.43
2017-08-25T18:48:15.446Z,11.40
2017-08-25T18:50:41.888Z,11.67
2017-08-25T18:53:08.331Z,12.03
2017-08-25T18:55:34.868Z,11.07
2017-08-25T18:58:01.255Z,11.33
2017-08-25T19:00:27.605Z,10.97
2017-08-25T19:02:54.051Z,11.53
2017-08-25T19:05:20.605Z,11.73
2017-08-25T19:07:46.992Z,11.93
2017-08-25T19:10:13.474Z,12.30
2017-08-25T19:12:39.871Z,12.63
2017-08-25T19:15:06.345Z,11.57
2017-08-25T19:17:32.779Z,11.73
2017-08-25T19:19:59.215Z,11.23
2017-08-25T19:22:25.649Z,11.97
2017-08-25T19:24:52.160Z,11.37
2017-08-25T19:27:18.622Z,11.63
2017-08-25T19:29:45.000Z,11.30
2017-08-25T19:32:11.492Z,9.47
2017-08-25T19:34:38.647Z,9.70
2017-08-25T19:37:05.034Z,10.60
2017-08-25T19:39:31.616Z,9.87
2017-08-25T19:41:58.051Z,10.23
2017-08-25T19:44:24.505Z,9.97
2017-08-25T19:46:50.926Z,10.03
2017-08-25T19:49:17.358Z,9.83
2017-08-25T19:51:44.509Z,11.17
2017-08-25T19:54:11.001Z,10.30
2017-08-25T19:56:37.437Z,10.03
2017-08-25T19:59:03.881Z,10.43
2017-08-25T20:01:30.349Z,10.60
2017-08-25T20:03:56.786Z,10.60
2017-08-25T20:06:23.321Z,10.57
2017-08-25T20:08:49.757Z,10.43
2017-08-25T20:11:16.190Z,10.93
2017-08-25T20:13:42.580Z,11.27
2017-08-25T20:16:09.016Z,10.63
2017-08-25T20:18:35.495Z,10.60
2017-08-25T20:21:01.879Z,10.47
2017-08-25T20:23:28.774Z,11.67
2017-08-25T20:25:55.312Z,11.60
2017-08-25T20:28:21.747Z,10.70
2017-08-25T20:30:48.184Z,11.77
2017-08-25T20:33:14.617Z,10.63
2017-08-25T20:35:41.107Z,11.67
2017-08-25T20:38:07.486Z,11.37
2017-08-25T20:40:33.876Z,11.90
2017-08-25T20:43:00.307Z,11.67
2017-08-25T20:45:27.612Z,11.03
2017-08-25T20:47:54.046Z,11.97
2017-08-25T20:50:20.479Z,11.90
2017-08-25T20:52:46.918Z,11.80
2017-08-25T20:55:13.403Z,11.40
2017-08-25T20:57:39.884Z,11.57
2017-08-25T21:00:06.328Z,11.63
2017-08-25T21:02:32.758Z,12.37
2017-08-25T21:04:59.264Z,12.30
2017-08-25T21:07:25.728Z,11.33
2017-08-25T21:09:52.116Z,11.80
2017-08-25T21:12:18.598Z,12.73
2017-08-25T21:14:45.135Z,12.77
2017-08-25T21:17:11.572Z,12.00
2017-08-25T21:19:38.110Z,11.60
2017-08-25T21:22:04.544Z,11.93
2017-08-25T21:24:31.800Z,12.10
2017-08-25T21:26:58.334Z,12.30
2017-08-25T21:29:24.815Z,11.83
2017-08-25T21:31:51.305Z,11.60
2017-08-25T21:34:17.744Z,11.60
2017-08-25T21:36:44.181Z,12.77
2017-08-25T21:39:10.613Z,12.23
2017-08-25T21:41:37.004Z,12.27
2017-08-25T21:44:03.481Z,13.00
2017-08-25T21:46:30.020Z,13.27
2017-08-25T21:48:56.459Z,12.40
2017-08-25T21:51:22.891Z,12.60
2017-08-25T21:53:49.324Z,13.73
2017-08-25T21:56:15.862Z,13.23
2017-08-25T21:58:42.295Z,13.33
2017-08-25T22:01:08.730Z,12.43
2017-08-25T22:03:35.165Z,12.70
2017-08-25T22:06:01.701Z,12.17
2017-08-25T22:08:28.137Z,12.93
2017-08-25T22:10:54.540Z,12.37
2017-08-25T22:13:20.912Z,12.97
2017-08-25T22:15:47.446Z,11.87
2017-08-25T22:18:13.844Z,12.03
2017-08-25T22:20:40.310Z,12.30
2017-08-25T22:23:06.746Z,13.07
2017-08-25T22:25:33.286Z,13.00
2017-08-25T22:27:59.647Z,12.30
2017-08-25T22:30:26.130Z,12.40
2017-08-25T22:32:53.512Z,12.70
2017-08-25T22:35:20.048Z,12.80
2017-08-25T22:37:46.481Z,14.10
2017-08-25T22:40:12.940Z,12.00
2017-08-25T22:42:39.352Z,12.53
2017-08-25T22:45:05.889Z,12.97
2017-08-25T22:47:32.275Z,11.53
2017-08-25T22:49:59.580Z,12.80
2017-08-25T22:52:26.013Z,12.57
2017-08-25T22:54:52.522Z,12.87
2017-08-25T22:57:19.600Z,11.77
2017-08-25T22:59:46.096Z,13.20
2017-08-25T23:02:12.469Z,11.93
2017-08-25T23:04:38.962Z,13.37
2017-08-25T23:07:05.444Z,12.97
2017-08-25T23:09:31.876Z,13.40
2017-08-25T23:11:59.132Z,13.00
2017-08-25T23:14:25.565Z,13.73
2017-08-25T23:16:51.955Z,13.47
2017-08-25T23:19:18.541Z,14.57
2017-08-25T23:21:44.997Z,14.53
2017-08-25T23:24:11.407Z,13.00
2017-08-25T23:26:37.843Z,13.70
2017-08-25T23:29:04.380Z,13.97
2017-08-25T23:31:30.815Z,12.50
2017-08-25T23:33:57.251Z,13.00
2017-08-25T23:36:23.788Z,14.33
2017-08-25T23:38:50.223Z,13.77
2017-08-25T23:41:16.618Z,13.87
2017-08-25T23:43:43.054Z,13.30
2017-08-25T23:46:09.570Z,12.37
2017-08-25T23:48:36.063Z,14.47
2017-08-25T23:51:03.213Z,13.90
2017-08-25T23:53:29.652Z,13.70
2017-08-25T23:55:56.188Z,12.97
2017-08-25T23:58:22.623Z,13.40
